createdAt,value
2023-01-06T00:00:26.756Z,3.30
2023-01-06T00:01:29.062Z,3.19
2023-01-06T00:02:30.622Z,3.14
2023-01-06T00:03:32.418Z,3.01
2023-01-06T00:04:34.043Z,2.97
2023-01-06T00:05:35.894Z,2.96
2023-01-06T00:06:37.477Z,2.90
2023-01-06T00:07:39.370Z,2.89
2023-01-06T00:08:40.897Z,2.94
2023-01-06T00:09:42.451Z,2.98
2023-01-06T00:10:43.973Z,2.98
2023-01-06T00:11:45.561Z,3.05
2023-01-06T00:12:48.775Z,3.11
2023-01-06T00:13:50.452Z,3.19
2023-01-06T00:14:52.446Z,3.30
2023-01-06T00:15:55.530Z,3.41
2023-01-06T00:16:57.169Z,3.49
2023-01-06T00:17:58.683Z,3.51
2023-01-06T00:19:00.527Z,3.59
2023-01-06T00:20:02.687Z,3.63
2023-01-06T00:21:05.027Z,3.69
2023-01-06T00:22:06.537Z,3.64
2023-01-06T00:23:08.063Z,3.67
2023-01-06T00:24:09.925Z,3.71
2023-01-06T00:25:11.557Z,3.70
2023-01-06T00:26:13.134Z,3.70
2023-01-06T00:27:14.842Z,3.60
2023-01-06T00:28:16.509Z,3.65
2023-01-06T00:29:18.059Z,3.60
2023-01-06T00:30:19.607Z,3.66
2023-01-06T00:31:21.325Z,3.74
2023-01-06T00:32:23.020Z,3.78
2023-01-06T00:33:24.672Z,3.83
2023-01-06T00:34:26.382Z,3.81
2023-01-06T00:35:27.915Z,3.84
2023-01-06T00:36:29.550Z,3.92
2023-01-06T00:37:31.211Z,3.97
2023-01-06T00:38:32.896Z,4.01
2023-01-06T00:39:34.452Z,4.06
2023-01-06T00:40:37.192Z,4.11
2023-01-06T00:41:57.939Z,4.16
2023-01-06T00:42:59.550Z,4.20
2023-01-06T00:44:02.211Z,4.19
2023-01-06T00:45:04.109Z,4.24
2023-01-06T00:46:05.672Z,4.23
2023-01-06T00:47:10.232Z,4.17
2023-01-06T00:48:11.860Z,4.21
2023-01-06T00:49:13.353Z,4.24
2023-01-06T00:50:14.919Z,4.31
2023-01-06T00:51:16.521Z,4.32
2023-01-06T00:52:18.080Z,4.31
2023-01-06T00:53:19.657Z,4.20
2023-01-06T00:54:21.643Z,4.13
2023-01-06T00:55:23.310Z,4.03
2023-01-06T00:56:24.997Z,3.94
2023-01-06T00:57:26.626Z,3.94
2023-01-06T00:58:31.713Z,3.84
2023-01-06T00:59:33.845Z,3.74
2023-01-06T01:00:35.612Z,3.61
2023-01-06T01:01:37.988Z,3.36
2023-01-06T01:02:39.751Z,3.20
2023-01-06T01:03:41.406Z,3.15
2023-01-06T01:04:42.976Z,3.09
2023-01-06T01:05:44.504Z,3.03
2023-01-06T01:06:47.431Z,2.92
2023-01-06T01:07:48.989Z,2.88
2023-01-06T01:08:55.598Z,2.95
2023-01-06T01:09:57.160Z,2.99
2023-01-06T01:11:07.724Z,2.92
2023-01-06T01:12:11.727Z,2.96
2023-01-06T01:13:13.290Z,3.05
2023-01-06T01:14:17.442Z,3.08
2023-01-06T01:15:18.944Z,3.13
2023-01-06T01:16:20.462Z,3.17
2023-01-06T01:17:31.368Z,3.23
2023-01-06T01:18:33.739Z,3.27
2023-01-06T01:19:35.896Z,3.28
2023-01-06T01:20:37.529Z,3.29
2023-01-06T01:21:39.765Z,3.34
2023-01-06T01:22:41.263Z,3.21
2023-01-06T01:23:42.795Z,3.17
2023-01-06T01:24:44.329Z,3.12
2023-01-06T01:25:45.948Z,2.79
2023-01-06T01:26:47.617Z,2.41
2023-01-06T01:27:49.117Z,2.30
2023-01-06T01:28:50.669Z,2.36
2023-01-06T01:29:52.183Z,2.41
2023-01-06T01:31:00.121Z,2.53
2023-01-06T01:32:01.912Z,2.62
2023-01-06T01:33:03.561Z,2.56
2023-01-06T01:34:05.386Z,2.47
2023-01-06T01:35:07.136Z,2.49
2023-01-06T01:36:10.777Z,2.57
2023-01-06T01:37:12.389Z,2.50
2023-01-06T01:38:13.927Z,2.48
2023-01-06T01:39:17.231Z,2.50
2023-01-06T01:40:18.794Z,2.46
2023-01-06T01:41:22.796Z,2.54
2023-01-06T01:42:24.359Z,2.66
2023-01-06T01:43:25.941Z,2.71
2023-01-06T01:44:52.050Z,2.72
2023-01-06T01:45:55.897Z,2.66
2023-01-06T01:46:57.755Z,2.60
2023-01-06T01:48:07.475Z,2.54
2023-01-06T01:49:18.149Z,2.47
2023-01-06T01:50:53.722Z,2.47
2023-01-06T01:51:57.269Z,2.41
2023-01-06T01:53:06.145Z,2.39
2023-01-06T01:54:11.256Z,2.50
2023-01-06T01:55:14.433Z,2.51
2023-01-06T01:56:21.236Z,2.42
2023-01-06T01:57:28.063Z,2.50
2023-01-06T01:58:48.963Z,2.65
2023-01-06T01:59:51.535Z,2.69
2023-01-06T02:00:53.311Z,2.73
2023-01-06T02:01:55.609Z,2.84
2023-01-06T02:02:58.390Z,2.85
2023-01-06T02:04:02.081Z,2.88
2023-01-06T02:05:04.103Z,2.92
2023-01-06T02:06:14.241Z,3.03
2023-01-06T02:07:15.769Z,3.16
2023-01-06T02:08:35.270Z,3.30
2023-01-06T02:09:51.867Z,3.40
2023-01-06T02:10:53.459Z,3.50
2023-01-06T02:11:56.803Z,3.58
2023-01-06T02:12:59.813Z,3.63
2023-01-06T02:14:11.239Z,3.71
2023-01-06T02:15:26.682Z,3.75
2023-01-06T02:16:43.457Z,3.74
2023-01-06T02:17:54.074Z,3.67
2023-01-06T02:19:07.717Z,3.72
2023-01-06T02:20:18.429Z,3.76
2023-01-06T02:21:35.804Z,3.82
2023-01-06T02:23:02.188Z,3.89
2023-01-06T02:24:44.412Z,3.94
2023-01-06T02:26:21.287Z,4.04
2023-01-06T02:27:57.366Z,3.94
2023-01-06T02:29:14.163Z,3.98
2023-01-06T02:30:43.251Z,3.95
2023-01-06T02:32:16.726Z,3.80
2023-01-06T02:33:42.794Z,3.74
2023-01-06T02:34:47.288Z,3.72
2023-01-06T02:36:24.966Z,3.76
2023-01-06T02:37:47.889Z,3.79
2023-01-06T02:38:56.601Z,3.81
2023-01-06T02:40:01.129Z,3.85
2023-01-06T02:41:25.602Z,3.90
2023-01-06T02:42:31.000Z,3.94
2023-01-06T02:43:44.140Z,3.97
2023-01-06T02:44:57.269Z,4.02
2023-01-06T02:46:07.665Z,3.98
2023-01-06T02:47:19.498Z,4.00
2023-01-06T02:48:33.744Z,4.02
2023-01-06T02:50:19.692Z,3.66
2023-01-06T02:51:43.343Z,3.46
2023-01-06T02:53:17.053Z,3.29
2023-01-06T02:54:42.423Z,3.07
2023-01-06T02:55:47.828Z,2.97
2023-01-06T02:56:55.749Z,2.94
2023-01-06T02:58:26.619Z,2.92
2023-01-06T02:59:36.307Z,2.94
2023-01-06T03:00:46.290Z,2.91
2023-01-06T03:01:52.854Z,2.93
2023-01-06T03:03:10.294Z,2.93
2023-01-06T03:04:20.936Z,2.89
2023-01-06T03:05:24.700Z,2.87
2023-01-06T03:06:29.852Z,2.81
2023-01-06T03:07:32.921Z,2.84
2023-01-06T03:08:36.242Z,2.90
2023-01-06T03:09:38.738Z,3.02
2023-01-06T03:10:43.168Z,3.12
2023-01-06T03:11:50.185Z,3.24
2023-01-06T03:12:56.542Z,3.36
2023-01-06T03:14:10.197Z,3.44
2023-01-06T03:15:12.101Z,3.51
2023-01-06T03:16:14.363Z,3.58
2023-01-06T03:17:15.963Z,3.62
2023-01-06T03:18:17.928Z,3.70
2023-01-06T03:19:19.520Z,3.71
2023-01-06T03:20:21.247Z,3.65
2023-01-06T03:21:26.980Z,3.70
2023-01-06T03:22:28.721Z,3.77
2023-01-06T03:23:30.363Z,3.82
2023-01-06T03:24:32.095Z,3.86
2023-01-06T03:25:33.622Z,3.92
2023-01-06T03:26:36.543Z,3.94
2023-01-06T03:27:38.065Z,3.91
2023-01-06T03:28:39.762Z,3.75
2023-01-06T03:29:41.491Z,3.71
2023-01-06T03:31:30.428Z,3.82
2023-01-06T03:32:40.177Z,3.86
2023-01-06T03:34:09.167Z,3.88
2023-01-06T03:35:37.540Z,3.81
2023-01-06T03:37:00.670Z,3.85
2023-01-06T03:38:25.536Z,3.92
2023-01-06T03:39:39.102Z,3.96
2023-01-06T03:40:44.216Z,3.83
2023-01-06T03:42:27.445Z,3.72
2023-01-06T03:43:47.002Z,3.76
2023-01-06T03:45:23.772Z,3.71
2023-01-06T03:46:38.564Z,3.76
2023-01-06T03:47:56.816Z,3.81
2023-01-06T03:49:07.997Z,3.89
2023-01-06T03:50:25.822Z,3.96
2023-01-06T03:51:31.124Z,4.01
2023-01-06T03:52:39.614Z,4.06
2023-01-06T03:53:56.409Z,4.07
2023-01-06T03:55:05.417Z,4.11
2023-01-06T03:56:19.239Z,4.10
2023-01-06T03:57:53.187Z,4.12
2023-01-06T03:58:58.852Z,4.07
2023-01-06T04:00:26.450Z,4.02
2023-01-06T04:01:29.719Z,4.01
2023-01-06T04:02:31.923Z,4.04
2023-01-06T04:03:34.413Z,4.05
2023-01-06T04:04:37.129Z,4.05
2023-01-06T04:05:38.732Z,4.03
2023-01-06T04:06:40.317Z,4.05
2023-01-06T04:07:43.799Z,3.89
2023-01-06T04:08:45.410Z,3.79
2023-01-06T04:09:46.962Z,3.69
2023-01-06T04:10:48.557Z,3.70
2023-01-06T04:12:08.667Z,3.71
2023-01-06T04:13:10.248Z,3.67
2023-01-06T04:14:11.963Z,3.57
2023-01-06T04:15:16.576Z,3.24
2023-01-06T04:16:18.153Z,3.03
2023-01-06T04:17:19.791Z,2.96
2023-01-06T04:18:21.327Z,3.05
2023-01-06T04:19:22.833Z,3.09
2023-01-06T04:20:28.025Z,3.08
2023-01-06T04:21:29.601Z,2.95
2023-01-06T04:22:31.239Z,2.96
2023-01-06T04:23:33.093Z,2.98
2023-01-06T04:24:34.658Z,3.03
2023-01-06T04:25:36.775Z,3.00
2023-01-06T04:26:38.332Z,3.07
2023-01-06T04:27:39.996Z,3.05
2023-01-06T04:28:41.576Z,3.03
2023-01-06T04:29:43.239Z,3.05
2023-01-06T04:30:44.818Z,3.03
2023-01-06T04:31:46.361Z,3.04
2023-01-06T04:32:48.012Z,3.07
2023-01-06T04:33:49.504Z,3.00
2023-01-06T04:34:51.368Z,2.87
2023-01-06T04:35:53.976Z,2.71
2023-01-06T04:36:57.211Z,2.65
2023-01-06T04:38:02.231Z,2.49
2023-01-06T04:39:04.063Z,2.33
2023-01-06T04:40:07.754Z,2.28
2023-01-06T04:41:09.343Z,2.25
2023-01-06T04:42:10.968Z,2.18
2023-01-06T04:43:18.938Z,2.13
2023-01-06T04:44:21.026Z,2.10
2023-01-06T04:45:22.944Z,2.09
2023-01-06T04:46:24.546Z,2.11
2023-01-06T04:47:26.103Z,2.08
2023-01-06T04:48:27.677Z,2.09
2023-01-06T04:49:29.268Z,2.17
2023-01-06T04:50:30.823Z,2.23
2023-01-06T04:51:32.368Z,2.32
2023-01-06T04:52:33.945Z,2.34
2023-01-06T04:53:37.565Z,2.32
2023-01-06T04:54:39.085Z,2.35
2023-01-06T04:55:41.929Z,2.42
2023-01-06T04:56:43.525Z,2.45
2023-01-06T04:57:45.141Z,2.48
2023-01-06T04:58:46.771Z,2.35
2023-01-06T04:59:48.299Z,2.20
2023-01-06T05:00:49.858Z,2.11
2023-01-06T05:01:51.633Z,2.03
2023-01-06T05:02:53.265Z,2.12
2023-01-06T05:03:55.028Z,2.19
2023-01-06T05:04:56.730Z,2.30
2023-01-06T05:06:09.833Z,2.33
2023-01-06T05:07:11.397Z,2.34
2023-01-06T05:08:12.929Z,2.38
2023-01-06T05:09:14.494Z,2.34
2023-01-06T05:10:16.121Z,2.36
2023-01-06T05:11:20.724Z,2.43
2023-01-06T05:12:22.531Z,2.53
2023-01-06T05:13:24.079Z,2.62
2023-01-06T05:14:25.607Z,2.63
2023-01-06T05:15:27.177Z,2.60
2023-01-06T05:16:33.857Z,2.74
2023-01-06T05:17:35.448Z,3.16
2023-01-06T05:18:37.141Z,3.02
2023-01-06T05:19:38.705Z,3.00
2023-01-06T05:20:40.271Z,3.01
2023-01-06T05:21:41.803Z,3.03
2023-01-06T05:22:43.451Z,3.08
2023-01-06T05:23:46.040Z,3.15
2023-01-06T05:24:47.700Z,3.19
2023-01-06T05:25:52.586Z,2.98
2023-01-06T05:26:55.052Z,2.72
2023-01-06T05:27:56.619Z,2.48
2023-01-06T05:28:58.202Z,2.21
2023-01-06T05:29:59.770Z,2.06
2023-01-06T05:31:02.721Z,1.96
2023-01-06T05:32:05.911Z,1.95
2023-01-06T05:33:07.630Z,1.94
2023-01-06T05:34:11.194Z,1.91
2023-01-06T05:35:12.827Z,1.95
2023-01-06T05:36:16.790Z,2.08
2023-01-06T05:37:18.388Z,2.21
2023-01-06T05:38:20.079Z,2.32
2023-01-06T05:39:21.668Z,2.42
2023-01-06T05:40:23.923Z,2.33
2023-01-06T05:41:25.452Z,2.34
2023-01-06T05:42:27.005Z,2.46
2023-01-06T05:43:29.410Z,2.48
2023-01-06T05:44:31.620Z,2.39
2023-01-06T05:45:33.223Z,2.31
2023-01-06T05:46:34.926Z,2.25
2023-01-06T05:47:36.553Z,2.19
2023-01-06T05:48:39.256Z,2.19
2023-01-06T05:49:40.872Z,2.10
2023-01-06T05:50:42.624Z,2.06
2023-01-06T05:51:44.158Z,2.00
2023-01-06T05:52:45.699Z,2.01
2023-01-06T05:53:48.725Z,2.04
2023-01-06T05:54:50.268Z,2.14
2023-01-06T05:55:51.825Z,2.22
2023-01-06T05:56:53.367Z,2.27
2023-01-06T05:57:54.876Z,2.29
2023-01-06T05:58:56.436Z,2.24
2023-01-06T05:59:57.997Z,2.24
2023-01-06T06:01:04.122Z,2.23
2023-01-06T06:02:05.850Z,2.19
2023-01-06T06:03:07.406Z,2.17
2023-01-06T06:04:09.051Z,2.20
2023-01-06T06:05:10.995Z,2.25
2023-01-06T06:06:12.553Z,2.35
2023-01-06T06:07:14.134Z,2.44
2023-01-06T06:08:16.107Z,2.50
2023-01-06T06:09:17.670Z,2.47
2023-01-06T06:10:19.194Z,2.40
2023-01-06T06:11:22.348Z,2.44
2023-01-06T06:12:24.002Z,2.50
2023-01-06T06:13:25.572Z,2.46
2023-01-06T06:14:27.306Z,2.53
2023-01-06T06:15:28.858Z,2.58
2023-01-06T06:16:30.533Z,2.65
2023-01-06T06:17:32.106Z,2.71
2023-01-06T06:18:34.076Z,2.87
2023-01-06T06:19:35.571Z,3.03
2023-01-06T06:20:37.140Z,3.14
2023-01-06T06:21:39.199Z,3.15
2023-01-06T06:22:40.705Z,3.20
2023-01-06T06:23:43.176Z,3.27
2023-01-06T06:24:44.957Z,3.25
2023-01-06T06:25:50.261Z,3.21
2023-01-06T06:26:51.917Z,3.22
2023-01-06T06:27:57.479Z,3.27
2023-01-06T06:28:59.037Z,3.32
2023-01-06T06:30:00.603Z,3.28
2023-01-06T06:31:06.671Z,3.13
2023-01-06T06:32:08.267Z,2.86
2023-01-06T06:33:09.791Z,2.67
2023-01-06T06:34:13.123Z,2.61
2023-01-06T06:35:14.784Z,2.44
2023-01-06T06:36:16.489Z,2.27
2023-01-06T06:37:18.088Z,2.17
2023-01-06T06:38:19.648Z,2.22
2023-01-06T06:39:22.107Z,2.32
2023-01-06T06:40:23.827Z,2.19
2023-01-06T06:41:25.889Z,2.12
2023-01-06T06:42:27.453Z,2.23
2023-01-06T06:43:29.292Z,2.33
2023-01-06T06:44:30.815Z,2.46
2023-01-06T06:45:32.397Z,2.49
2023-01-06T06:46:33.939Z,2.57
2023-01-06T06:47:35.561Z,2.69
2023-01-06T06:48:37.542Z,2.87
2023-01-06T06:49:39.125Z,3.02
2023-01-06T06:50:40.660Z,3.66
2023-01-06T06:51:42.279Z,4.26
2023-01-06T06:52:43.869Z,4.53
2023-01-06T06:53:45.991Z,4.56
2023-01-06T06:54:47.482Z,4.63
2023-01-06T06:55:49.015Z,4.73
2023-01-06T06:56:50.591Z,4.78
2023-01-06T06:57:52.113Z,4.86
2023-01-06T06:58:53.699Z,4.93
2023-01-06T06:59:57.840Z,4.98
2023-01-06T07:01:04.284Z,4.90
2023-01-06T07:02:06.477Z,4.44
2023-01-06T07:03:08.073Z,4.19
2023-01-06T07:04:09.696Z,3.95
2023-01-06T07:05:11.224Z,3.81
2023-01-06T07:06:16.730Z,3.54
2023-01-06T07:07:18.343Z,3.42
2023-01-06T07:08:20.262Z,3.35
2023-01-06T07:09:21.792Z,3.39
2023-01-06T07:10:23.301Z,3.56
2023-01-06T07:11:24.831Z,3.79
2023-01-06T07:12:26.339Z,4.02
2023-01-06T07:13:28.324Z,4.28
2023-01-06T07:14:29.895Z,4.47
2023-01-06T07:15:31.565Z,4.61
2023-01-06T07:16:33.114Z,4.76
2023-01-06T07:17:34.714Z,4.92
2023-01-06T07:18:36.981Z,5.06
2023-01-06T07:19:38.496Z,5.07
2023-01-06T07:20:40.089Z,4.89
2023-01-06T07:21:41.779Z,4.81
2023-01-06T07:22:43.308Z,4.92
2023-01-06T07:23:44.827Z,5.02
2023-01-06T07:24:46.488Z,5.01
2023-01-06T07:26:01.590Z,4.68
2023-01-06T07:27:03.170Z,4.38
2023-01-06T07:28:05.646Z,4.40
2023-01-06T07:29:07.209Z,4.65
2023-01-06T07:30:09.240Z,4.85
2023-01-06T07:31:10.985Z,5.08
2023-01-06T07:32:12.568Z,5.33
2023-01-06T07:33:14.199Z,5.56
2023-01-06T07:34:15.754Z,5.77
2023-01-06T07:35:18.018Z,5.85
2023-01-06T07:36:19.541Z,5.95
2023-01-06T07:37:21.073Z,6.11
2023-01-06T07:38:23.511Z,6.29
2023-01-06T07:39:25.094Z,6.49
2023-01-06T07:40:26.605Z,6.61
2023-01-06T07:41:28.113Z,6.58
2023-01-06T07:42:29.641Z,6.56
2023-01-06T07:43:31.196Z,6.48
2023-01-06T07:44:32.802Z,6.52
2023-01-06T07:45:35.122Z,6.56
2023-01-06T07:46:36.689Z,6.55
2023-01-06T07:47:38.281Z,6.39
2023-01-06T07:48:39.850Z,6.22
2023-01-06T07:49:41.432Z,6.09
2023-01-06T07:50:43.005Z,6.13
2023-01-06T07:51:44.575Z,6.18
2023-01-06T07:52:46.201Z,6.34
2023-01-06T07:53:47.754Z,6.36
2023-01-06T07:54:49.303Z,6.39
2023-01-06T07:55:52.652Z,6.48
2023-01-06T07:56:54.224Z,6.52
2023-01-06T07:57:55.772Z,6.52
2023-01-06T07:58:57.734Z,6.58
2023-01-06T07:59:59.321Z,6.63
2023-01-06T08:01:05.948Z,6.64
2023-01-06T08:02:07.634Z,6.55
2023-01-06T08:03:11.631Z,6.68
2023-01-06T08:04:13.270Z,6.96
2023-01-06T08:05:14.849Z,7.22
2023-01-06T08:06:16.401Z,7.37
2023-01-06T08:07:18.239Z,7.55
2023-01-06T08:08:19.807Z,7.79
2023-01-06T08:09:21.351Z,8.00
2023-01-06T08:10:22.900Z,8.23
2023-01-06T08:11:24.553Z,8.39
2023-01-06T08:12:26.067Z,8.54
2023-01-06T08:13:27.604Z,8.45
2023-01-06T08:14:29.173Z,8.38
2023-01-06T08:15:30.778Z,8.38
2023-01-06T08:16:32.286Z,8.46
2023-01-06T08:17:33.821Z,8.53
2023-01-06T08:18:36.158Z,8.63
2023-01-06T08:19:37.742Z,8.79
2023-01-06T08:20:39.366Z,8.97
2023-01-06T08:21:40.878Z,9.05
2023-01-06T08:22:42.454Z,9.02
2023-01-06T08:23:43.998Z,9.02
2023-01-06T08:24:45.585Z,9.08
2023-01-06T08:25:47.122Z,9.18
2023-01-06T08:26:48.620Z,9.21
2023-01-06T08:27:50.227Z,9.25
2023-01-06T08:28:53.565Z,9.23
2023-01-06T08:29:55.471Z,9.23
2023-01-06T08:30:57.520Z,9.30
2023-01-06T08:32:09.806Z,9.39
2023-01-06T08:33:13.388Z,9.29
2023-01-06T08:34:15.089Z,9.21
2023-01-06T08:35:16.956Z,9.11
2023-01-06T08:36:20.743Z,9.15
2023-01-06T08:37:22.286Z,9.05
2023-01-06T08:38:23.849Z,9.07
2023-01-06T08:39:25.389Z,9.06
2023-01-06T08:40:26.910Z,9.06
2023-01-06T08:41:28.560Z,8.94
2023-01-06T08:42:30.104Z,8.99
2023-01-06T08:43:31.742Z,9.06
2023-01-06T08:44:33.309Z,9.03
2023-01-06T08:45:39.427Z,9.09
2023-01-06T08:46:41.089Z,9.22
2023-01-06T08:47:42.696Z,9.28
2023-01-06T08:48:44.903Z,9.39
2023-01-06T08:49:46.557Z,9.50
2023-01-06T08:50:48.162Z,9.56
2023-01-06T08:51:49.792Z,9.67
2023-01-06T08:52:52.115Z,9.81
2023-01-06T08:53:54.417Z,9.97
2023-01-06T08:54:55.997Z,10.06
2023-01-06T08:55:57.588Z,10.09
2023-01-06T08:56:59.181Z,10.22
2023-01-06T08:58:00.729Z,10.36
2023-01-06T08:59:03.851Z,10.44
2023-01-06T09:00:06.618Z,10.53
2023-01-06T09:01:16.236Z,10.71
2023-01-06T09:02:17.869Z,10.90
2023-01-06T09:03:19.585Z,10.97
2023-01-06T09:04:21.212Z,10.93
2023-01-06T09:05:22.779Z,11.02
2023-01-06T09:06:25.020Z,11.02
2023-01-06T09:07:26.619Z,11.05
2023-01-06T09:08:28.169Z,11.05
2023-01-06T09:09:29.758Z,11.04
2023-01-06T09:10:31.332Z,11.12
2023-01-06T09:11:33.179Z,11.23
2023-01-06T09:12:34.854Z,11.29
2023-01-06T09:13:37.326Z,11.27
2023-01-06T09:14:38.951Z,11.33
2023-01-06T09:15:41.711Z,11.45
2023-01-06T09:16:43.395Z,11.54
2023-01-06T09:17:44.938Z,11.54
2023-01-06T09:18:50.395Z,11.54
2023-01-06T09:19:51.965Z,11.61
2023-01-06T09:20:53.461Z,11.71
2023-01-06T09:21:54.986Z,11.80
2023-01-06T09:22:56.526Z,11.90
2023-01-06T09:23:58.101Z,12.00
2023-01-06T09:24:59.744Z,12.06
2023-01-06T09:26:01.302Z,12.17
2023-01-06T09:27:02.879Z,12.23
2023-01-06T09:28:04.492Z,12.15
2023-01-06T09:29:06.216Z,12.01
2023-01-06T09:30:08.393Z,11.96
2023-01-06T09:31:10.109Z,12.11
2023-01-06T09:32:11.672Z,12.20
2023-01-06T09:33:13.197Z,12.28
2023-01-06T09:34:14.941Z,12.37
2023-01-06T09:35:16.555Z,12.38
2023-01-06T09:36:18.118Z,12.52
2023-01-06T09:37:19.627Z,12.60
2023-01-06T09:38:21.245Z,12.61
2023-01-06T09:39:22.891Z,12.68
2023-01-06T09:40:48.727Z,12.77
2023-01-06T09:42:14.062Z,12.77
2023-01-06T09:43:34.020Z,12.85
2023-01-06T09:44:50.283Z,12.90
2023-01-06T09:45:55.858Z,12.94
2023-01-06T09:47:00.339Z,13.01
2023-01-06T09:48:04.067Z,13.05
2023-01-06T09:49:32.348Z,13.07
2023-01-06T09:50:53.255Z,13.11
2023-01-06T09:51:59.805Z,13.30
2023-01-06T09:53:09.951Z,13.33
2023-01-06T09:54:23.106Z,13.38
2023-01-06T09:55:36.356Z,13.42
2023-01-06T09:56:41.657Z,13.47
2023-01-06T09:57:58.989Z,13.55
2023-01-06T09:59:11.455Z,13.68
2023-01-06T10:00:50.358Z,13.60
2023-01-06T10:01:52.319Z,13.53
2023-01-06T10:02:54.076Z,13.55
2023-01-06T10:03:57.504Z,13.52
2023-01-06T10:04:59.180Z,13.55
2023-01-06T10:06:06.849Z,13.51
2023-01-06T10:07:25.368Z,13.28
2023-01-06T10:09:00.337Z,13.27
2023-01-06T10:10:23.052Z,13.29
2023-01-06T10:11:27.305Z,13.30
2023-01-06T10:12:47.336Z,13.23
2023-01-06T10:14:13.973Z,13.23
2023-01-06T10:15:18.038Z,13.29
2023-01-06T10:16:28.479Z,13.41
2023-01-06T10:17:36.257Z,13.42
2023-01-06T10:18:48.916Z,13.42
2023-01-06T10:20:23.269Z,13.35
2023-01-06T10:21:40.531Z,13.42
2023-01-06T10:23:14.630Z,13.30
2023-01-06T10:24:34.834Z,13.45
2023-01-06T10:25:57.609Z,13.56
2023-01-06T10:27:14.689Z,13.60
2023-01-06T10:28:19.362Z,13.71
2023-01-06T10:29:21.870Z,13.76
2023-01-06T10:30:30.809Z,13.76
2023-01-06T10:31:39.584Z,13.82
2023-01-06T10:32:42.927Z,13.80
2023-01-06T10:33:52.598Z,13.74
2023-01-06T10:34:55.752Z,13.66
2023-01-06T10:35:59.169Z,13.58
2023-01-06T10:37:09.897Z,13.65
2023-01-06T10:38:13.605Z,13.65
2023-01-06T10:39:21.531Z,13.71
2023-01-06T10:40:29.398Z,13.70
2023-01-06T10:41:39.328Z,13.77
2023-01-06T10:42:55.613Z,13.71
2023-01-06T10:43:57.768Z,13.64
2023-01-06T10:44:59.351Z,13.49
2023-01-06T10:46:00.897Z,13.48
2023-01-06T10:47:02.499Z,13.48
2023-01-06T10:48:06.896Z,13.53
2023-01-06T10:49:15.466Z,13.39
2023-01-06T10:50:18.993Z,13.34
2023-01-06T10:51:35.033Z,13.33
2023-01-06T10:52:37.199Z,13.37
2023-01-06T10:53:38.749Z,13.45
2023-01-06T10:54:42.255Z,13.56
2023-01-06T10:55:53.075Z,13.61
2023-01-06T10:57:04.527Z,13.58
2023-01-06T10:58:21.430Z,13.55
2023-01-06T10:59:23.002Z,13.47
2023-01-06T11:00:25.924Z,13.42
2023-01-06T11:01:33.951Z,13.31
2023-01-06T11:02:36.449Z,13.15
2023-01-06T11:03:42.795Z,13.21
2023-01-06T11:04:51.888Z,13.21
2023-01-06T11:06:28.046Z,13.11
2023-01-06T11:07:30.467Z,13.07
2023-01-06T11:08:33.267Z,13.08
2023-01-06T11:09:39.742Z,13.06
2023-01-06T11:10:51.936Z,13.10
2023-01-06T11:11:55.885Z,13.01
2023-01-06T11:13:00.456Z,12.93
2023-01-06T11:14:05.559Z,12.94
2023-01-06T11:15:08.674Z,12.99
2023-01-06T11:16:27.560Z,13.00
2023-01-06T11:17:30.040Z,13.01
2023-01-06T11:18:34.074Z,13.04
2023-01-06T11:19:41.412Z,12.99
2023-01-06T11:20:43.549Z,12.96
2023-01-06T11:21:49.503Z,12.92
2023-01-06T11:22:51.301Z,12.86
2023-01-06T11:24:15.544Z,12.93
2023-01-06T11:25:20.065Z,12.95
2023-01-06T11:26:23.666Z,12.89
2023-01-06T11:27:25.410Z,12.84
2023-01-06T11:28:27.015Z,12.82
2023-01-06T11:29:33.779Z,12.82
2023-01-06T11:30:48.917Z,12.79
2023-01-06T11:31:50.989Z,12.76
2023-01-06T11:32:53.449Z,12.79
2023-01-06T11:33:59.371Z,12.82
2023-01-06T11:35:03.698Z,12.80
2023-01-06T11:36:13.736Z,12.86
2023-01-06T11:37:15.302Z,12.88
2023-01-06T11:38:20.125Z,12.86
2023-01-06T11:39:27.867Z,12.88
2023-01-06T11:40:32.609Z,12.86
2023-01-06T11:41:40.214Z,12.79
2023-01-06T11:43:51.647Z,12.72
2023-01-06T11:44:53.851Z,12.60
2023-01-06T11:46:07.976Z,12.59
2023-01-06T11:47:16.834Z,12.59
2023-01-06T11:48:34.576Z,12.68
2023-01-06T11:49:59.047Z,12.77
2023-01-06T11:51:03.880Z,12.83
2023-01-06T11:52:18.902Z,12.93
2023-01-06T11:53:21.569Z,12.93
2023-01-06T11:54:33.734Z,12.88
2023-01-06T11:55:35.309Z,12.93
2023-01-06T11:56:37.489Z,12.99
2023-01-06T11:57:44.476Z,12.95
2023-01-06T11:58:51.991Z,12.94
2023-01-06T12:00:16.954Z,12.99
2023-01-06T12:01:54.001Z,13.06
2023-01-06T12:03:10.577Z,13.01
2023-01-06T12:04:19.620Z,12.99
2023-01-06T12:05:35.115Z,12.90
2023-01-06T12:06:45.262Z,12.91
2023-01-06T12:07:52.876Z,12.92
2023-01-06T12:09:06.570Z,12.85
2023-01-06T12:10:20.279Z,12.69
2023-01-06T12:11:45.586Z,12.55
2023-01-06T12:12:48.483Z,12.51
2023-01-06T12:14:10.660Z,12.47
2023-01-06T12:15:14.876Z,12.46
2023-01-06T12:16:28.998Z,12.43
2023-01-06T12:17:40.734Z,12.49
2023-01-06T12:18:42.997Z,12.50
2023-01-06T12:19:53.683Z,12.44
2023-01-06T12:20:56.836Z,12.42
2023-01-06T12:21:59.424Z,12.44
2023-01-06T12:23:24.730Z,12.36
2023-01-06T12:24:27.170Z,12.29
2023-01-06T12:25:58.370Z,12.19
2023-01-06T12:27:04.953Z,12.17
2023-01-06T12:28:19.872Z,12.16
2023-01-06T12:29:22.267Z,12.13
2023-01-06T12:30:23.734Z,12.16
2023-01-06T12:31:36.617Z,12.16
2023-01-06T12:32:43.177Z,12.09
2023-01-06T12:33:54.665Z,12.06
2023-01-06T12:35:02.522Z,12.05
2023-01-06T12:36:23.249Z,12.05
2023-01-06T12:37:31.873Z,12.00
2023-01-06T12:38:52.133Z,11.95
2023-01-06T12:39:59.833Z,12.02
2023-01-06T12:41:08.919Z,11.94
2023-01-06T12:42:23.594Z,11.92
2023-01-06T12:43:29.641Z,11.90
2023-01-06T12:44:52.644Z,11.90
2023-01-06T12:46:28.708Z,11.84
2023-01-06T12:47:43.160Z,11.81
2023-01-06T12:49:03.307Z,11.84
2023-01-06T12:50:26.274Z,11.81
2023-01-06T12:51:42.310Z,11.86
2023-01-06T12:53:01.260Z,11.88
2023-01-06T12:54:24.318Z,11.90
2023-01-06T12:55:52.147Z,11.88
2023-01-06T12:57:01.769Z,12.00
2023-01-06T12:58:26.153Z,12.07
2023-01-06T12:59:27.646Z,12.21
2023-01-06T13:00:41.315Z,12.23
2023-01-06T13:01:51.044Z,12.35
2023-01-06T13:03:40.288Z,12.47
2023-01-06T13:04:59.939Z,12.43
2023-01-06T13:06:20.307Z,12.45
2023-01-06T13:07:48.351Z,12.46
2023-01-06T13:08:56.231Z,12.57
2023-01-06T13:10:26.666Z,12.55
2023-01-06T13:11:43.536Z,12.56
2023-01-06T13:12:53.980Z,12.57
2023-01-06T13:14:15.795Z,12.61
2023-01-06T13:15:25.535Z,12.62
2023-01-06T13:16:38.315Z,12.65
2023-01-06T13:17:50.565Z,12.68
2023-01-06T13:19:10.366Z,12.63
2023-01-06T13:20:23.163Z,12.66
2023-01-06T13:21:25.350Z,12.64
2023-01-06T13:22:55.726Z,12.58
2023-01-06T13:24:20.870Z,12.60
2023-01-06T13:25:41.076Z,12.64
2023-01-06T13:26:57.904Z,12.64
2023-01-06T13:28:10.012Z,12.67
2023-01-06T13:29:31.275Z,12.63
2023-01-06T13:30:41.823Z,12.64
2023-01-06T13:32:11.010Z,12.63
2023-01-06T13:33:31.218Z,12.59
2023-01-06T13:35:10.123Z,12.60
2023-01-06T13:36:39.075Z,12.57
2023-01-06T13:38:05.426Z,12.48
2023-01-06T13:39:24.148Z,12.36
2023-01-06T13:40:29.628Z,12.29
2023-01-06T13:41:35.377Z,12.21
2023-01-06T13:43:06.025Z,12.15
2023-01-06T13:44:25.828Z,12.10
2023-01-06T13:45:40.808Z,12.05
2023-01-06T13:46:42.871Z,12.06
2023-01-06T13:47:46.759Z,12.04
2023-01-06T13:48:55.555Z,11.94
2023-01-06T13:49:58.486Z,11.91
2023-01-06T13:51:04.587Z,11.92
2023-01-06T13:52:14.880Z,11.91
2023-01-06T13:53:20.084Z,11.90
2023-01-06T13:54:39.868Z,11.80
2023-01-06T13:55:41.513Z,11.78
2023-01-06T13:56:43.130Z,11.76
2023-01-06T13:57:44.861Z,11.72
2023-01-06T13:58:47.101Z,11.68
2023-01-06T13:59:48.724Z,11.69
2023-01-06T14:01:11.000Z,11.67
2023-01-06T14:02:35.670Z,11.69
2023-01-06T14:03:41.904Z,11.71
2023-01-06T14:04:45.439Z,11.71
2023-01-06T14:05:46.891Z,11.75
2023-01-06T14:06:49.325Z,11.73
2023-01-06T14:07:53.821Z,11.75
2023-01-06T14:08:58.865Z,11.74
2023-01-06T14:10:01.549Z,11.73
2023-01-06T14:11:20.381Z,11.76
2023-01-06T14:12:24.039Z,11.73
2023-01-06T14:13:30.495Z,11.76
2023-01-06T14:14:38.520Z,11.75
2023-01-06T14:15:55.351Z,11.70
2023-01-06T14:16:58.127Z,11.69
2023-01-06T14:18:03.688Z,11.72
2023-01-06T14:19:08.618Z,11.71
2023-01-06T14:20:31.219Z,11.67
2023-01-06T14:21:33.506Z,11.65
2023-01-06T14:22:35.299Z,11.66
2023-01-06T14:23:37.264Z,11.65
2023-01-06T14:24:43.659Z,11.62
2023-01-06T14:25:50.899Z,11.61
2023-01-06T14:27:01.014Z,11.61
2023-01-06T14:28:02.626Z,11.59
2023-01-06T14:29:41.392Z,11.54
2023-01-06T14:30:43.061Z,11.52
2023-01-06T14:31:44.655Z,11.51
2023-01-06T14:32:46.133Z,11.53
2023-01-06T14:33:53.807Z,11.50
2023-01-06T14:35:11.239Z,11.52
2023-01-06T14:36:15.672Z,11.45
2023-01-06T14:37:19.927Z,11.42
2023-01-06T14:38:29.969Z,11.42